Armona, CA

1:13 PM PDT on August 30, 2014 (GMT -0700)
North Hanford | Change Station
CLOSE
Current Station
Personal Weather Station
Location: Hanford, CA
Elevation: 249 ft
Nearby Weather Stations

Elev 249 ft 36.36 °N, 119.66 °W | Updated 15 seconds ago

Clear
Clear
91.9 °F
Feels Like 90 °F
N
3.7
Wind Variable Wind from West
Gusts 8.9 mph

Today
High -- | Low -- °F
--% Chance of Precip.
Yesterday
High -- | Low -- °F
Precip. -- in
6:28 AM 7:29 PM
Waxing Crescent, 24% visible
Pressure 29.85 in
Visibility 10.0 miles
Clouds Clear
Heat Index 90 °F
Dew Point 54 °F
Humidity 28%
Rainfall 0.00 in
Snow Depth Not available.
UV 10 out of 12
Pollen 9.90 out of 12
Air Quality Not available.
Flu Activity Not available.
METAR KHJO 301953Z AUTO 33012KT 10SM CLR 34/04 A2985 RMK AO2 SLP108 T03390044 $

More Conditions Fewer Conditions

Pressure 29.85 in
Visibility 10.0 miles
Clouds Clear
Heat Index 90 °F
Dew Point 54 °F
Humidity 28%
Rainfall 0.00 in
Snow Depth Not available.
UV 10 out of 12
Pollen 9.90 out of 12
Air Quality Not available.
Flu Activity Not available.
METAR KHJO 301953Z AUTO 33012KT 10SM CLR 34/04 A2985 RMK AO2 SLP108 T03390044 $

More Conditions Fewer Conditions

10-Day Weather Forecast

Almanac

Astronomy

Aug. 30, 2014 Rise Set
Actual Time 6:28 AM PDT 7:29 PM PDT
Civil Twilight 6:02 AM PDT 7:55 PM PDT
Nautical Twilight 5:31 AM PDT 8:26 PM PDT
Astronomical Twilight 4:58 AM PDT 8:59 PM PDT
Moon 11:11 AM PDT 10:16 PM PDT
Length of Visible Light 13h 53m
Length of Day
13h 00m
Tomorrow will be 2m 12s shorter.
Waxing Crescent, 24% of the Moon is Illuminated
Today
Waxing Crescent
Sep 2
First Quarter
Sep 8
Full
Sep 15
Last Quarter
Sep 24
New

Today's Extremes

State Highs State Lows

Community

WunderPhotos

Upload Photos

1,748,622 photos uploaded!

WunderBlogs® & News

Nearby

Air Quality

  Air Quality AQ Index Pollutant
Saturday Moderate
PM10
Sunday Moderate
PM10
Monday Moderate
PM10
Tuesday Moderate
PM10
Wednesday Moderate
PM10

Snow Depth

Station Depth Elevation
Leavitt Meadows 1 in 7200 ft
Summit Meadow 0 in 9122 ft
Monitor Pass 0 in 8350 ft
Hagan's Meadow 0 in 8000 ft
Rubicon #2 0 in 7500 ft

Earthquake Activity

City Distance Mag. Time & Date
Ridgemark, California 93 miles 3.4 4:32 PM PDT
2014-08-29
Ridgemark, California 93 miles 3.0 2:44 PM PDT
2014-08-29
Orange Cove, California 33 miles 2.5 7:48 AM PDT
2014-08-29
Minimum magnitude displayed is 2.5.

Coastal Water Temperatures

Place Temperature
No Stations Reporting

Nearby Weather Stations